• Join FlightAware (Why Join?)
  • Login
  • US Flag 
03:19AM EDT


 

Airport Tracker/Info


-or-


 

Live Flight TrackerFlight Track Log ✈ EJA749 ✈ 18-Sep-2013 ✈ KSAV - KSAV

Flight Track Log - Related Links

Times and Time Zones

All times are in EDT time to prevent confusion due to time zone crossing. See the EJA749 flight status page for this flight to view local times or setup timezone preferences in your user account.

Time Position Orientation Groundspeed Altitude Reporting Facility
EDT Latitude Longitude Course Direction KTS MPH feet Rate Location/Type
09:25AM 32.1253 -81.1436 53° Northeast 219 252 3,300  Level Jacksonville Center
09:26AM 32.1219 -81.0650 93° East 257 296 7,400 3,300 Climbing Jacksonville Center
09:27AM 32.1692 -81.0003 49° Northeast 271 312 10,000 1,320 Climbing Jacksonville Center
09:28AM 32.2203 -80.9331 48° Northeast 272 313 10,100  Climbing Jacksonville Center
09:29AM 32.2694 -80.8656 49° Northeast 246 283 10,000  Descending Jacksonville Center
09:30AM 32.1276 -81.2021 53° Northeast  Level Estimated
09:30AM 32.3083 -80.8181 46° Northeast 206 237 10,100  Level Jacksonville Center
09:31AM 32.3450 -80.7681 49° Northeast 190 219 10,100  Level Jacksonville Center
09:32AM 32.3817 -80.7156 50° Northeast 190 219 10,100 -60 Level Jacksonville Center
09:33AM 32.4183 -80.6703 46° Northeast 185 213 10,000  Descending Jacksonville Center
09:34AM 32.4511 -80.6253 49° Northeast 185 213 10,100  Climbing Jacksonville Center
09:35AM 32.4878 -80.5800 46° Northeast 185 213 10,100  Level Jacksonville Center
09:36AM 32.5203 -80.5372 48° Northeast 185 213 10,100  Level Jacksonville Center
09:37AM 32.5569 -80.4894 48° Northeast 190 219 10,100  Level Jacksonville Center
09:38AM 32.6019 -80.4317 47° Northeast 198 228 10,100 420 Level Jacksonville Center
09:39AM 32.6608 -80.3533 48° Northeast 287 330 11,000 2,040 Climbing Jacksonville Center
09:40AM 32.7281 -80.2628 49° Northeast 315 362 14,200 3,060 Climbing Jacksonville Center
09:41AM 32.8011 -80.1767 45° Northeast 346 398 17,200 2,820 Climbing Jacksonville Center
09:42AM 32.8978 -80.1983 349° North 325 374 19,900 2,700 Climbing Jacksonville Center
09:43AM 32.9272 -80.3186 286° West 254 292 22,700 1,500 Climbing Jacksonville Center
09:44AM 32.9364 -80.4594 274° West 328 377 23,000 180 Climbing Jacksonville Center
09:45AM 32.9539 -80.6125 278° West 402 463 23,100  Climbing Jacksonville Center
09:46AM 32.9669 -80.7708 276° West 463 533 23,000 -60 Descending Jacksonville Center
09:47AM 32.9822 -80.9314 277° West 480 552 23,000  Level Jacksonville Center
09:48AM 32.9928 -81.0822 275° West 478 550 23,000 -420 Level Jacksonville Center
09:49AM 32.9967 -81.2158 272° West 448 516 22,200 -1,980 Descending Jacksonville Center
09:50AM 32.9186 -81.2989 222° Southwest 346 398 19,100 -2,940 Descending Jacksonville Center
09:51AM 32.8161 -81.3008 181° South 308 354 16,400 -2,880 Descending Jacksonville Center
09:52AM 32.7181 -81.3050 182° South 337 388 13,400 -2,880 Descending Jacksonville Center
09:53AM 32.6261 -81.2942 174° South 326 375 10,700 -2,040 Descending Jacksonville Center
09:54AM 32.5428 -81.2956 181° South 305 351 9,400 -1,380 Descending Jacksonville Center
09:55AM 32.4636 -81.3044 185° South 315 362 8,000 -1,500 Descending Jacksonville Center
09:56AM 32.3697 -81.3111 183° South 320 368 6,400 -1,500 Descending Jacksonville Center
09:57AM 32.2967 -81.3197 186° South 288 331 5,100 -1,320 Descending Jacksonville Center
09:58AM 32.2258 -81.3283 186° South 266 306 3,800 -1,380 Descending Jacksonville Center
09:59AM 32.1547 -81.3244 177° South 261 300 2,400 -1,440 Descending Jacksonville Center
10:01AM 32.1167 -81.2000 180° South  Level FlightAware Approximate
10:08AM 32.1276 -81.2021 180° South  Level Estimated
10:09AM 32.1276 -81.2021 180° South  Level Estimated
10:10AM 32.1276 -81.2021 180° South  Level Estimated
10:11AM 32.1276 -81.2021 180° South  Level Estimated